createdAt,value
2022-09-28T00:01:18.145Z,11.38
2022-09-28T00:03:45.690Z,11.47
2022-09-28T00:06:14.425Z,11.46
2022-09-28T00:08:40.902Z,11.49
2022-09-28T00:11:08.442Z,11.63
2022-09-28T00:13:35.089Z,11.56
2022-09-28T00:16:02.727Z,11.42
2022-09-28T00:18:29.402Z,11.43
2022-09-28T00:21:10.328Z,11.33
2022-09-28T00:23:37.162Z,11.41
2022-09-28T00:26:06.655Z,11.53
2022-09-28T00:28:33.165Z,11.50
2022-09-28T00:31:00.369Z,11.44
2022-09-28T00:33:26.951Z,11.38
2022-09-28T00:35:59.389Z,11.45
2022-09-28T00:38:27.089Z,11.36
2022-09-28T00:40:53.633Z,11.25
2022-09-28T00:43:20.795Z,11.15
2022-09-28T00:45:57.735Z,11.20
2022-09-28T00:48:27.714Z,11.08
2022-09-28T00:50:54.232Z,10.92
2022-09-28T00:53:27.060Z,10.84
2022-09-28T00:56:02.182Z,10.85
2022-09-28T00:58:32.347Z,10.87
2022-09-28T01:00:59.080Z,10.73
2022-09-28T01:03:26.834Z,10.86
2022-09-28T01:05:53.907Z,10.85
2022-09-28T01:08:21.841Z,10.67
2022-09-28T01:10:49.014Z,10.59
2022-09-28T01:13:15.802Z,10.79
2022-09-28T01:16:07.173Z,10.73
2022-09-28T01:19:07.368Z,10.52
2022-09-28T01:21:54.080Z,10.29
2022-09-28T01:24:27.708Z,10.27
2022-09-28T01:26:56.399Z,10.26
2022-09-28T01:29:36.381Z,10.31
2022-09-28T01:32:22.997Z,10.26
2022-09-28T01:35:04.232Z,10.06
2022-09-28T01:37:53.412Z,10.01
2022-09-28T01:40:25.139Z,10.03
2022-09-28T01:42:59.914Z,10.06
2022-09-28T01:45:29.692Z,9.84
2022-09-28T01:48:02.175Z,9.74
2022-09-28T01:50:29.875Z,9.81
2022-09-28T01:53:15.779Z,9.96
2022-09-28T01:55:45.112Z,10.02
2022-09-28T01:58:28.773Z,10.22
2022-09-28T02:01:09.517Z,10.14
2022-09-28T02:03:41.609Z,10.03
2022-09-28T02:06:22.076Z,10.02
2022-09-28T02:09:05.498Z,10.20
2022-09-28T02:11:32.963Z,10.29
2022-09-28T02:14:03.937Z,10.02
2022-09-28T02:16:35.981Z,9.86
2022-09-28T02:19:03.350Z,9.79
2022-09-28T02:21:42.995Z,9.83
2022-09-28T02:24:21.191Z,9.74
2022-09-28T02:26:52.005Z,9.71
2022-09-28T02:29:18.799Z,9.50
2022-09-28T02:31:45.560Z,9.54
2022-09-28T02:34:12.042Z,9.64
2022-09-28T02:36:42.467Z,9.73
2022-09-28T02:39:15.930Z,9.81
2022-09-28T02:41:42.318Z,9.92
2022-09-28T02:44:31.222Z,10.00
2022-09-28T02:47:18.016Z,9.98
2022-09-28T02:49:50.104Z,10.00
2022-09-28T02:52:50.807Z,9.91
2022-09-28T02:55:44.947Z,9.78
2022-09-28T02:58:14.403Z,9.97
2022-09-28T03:00:45.242Z,9.73
2022-09-28T03:03:42.466Z,9.74
2022-09-28T03:06:22.649Z,9.91
2022-09-28T03:09:04.771Z,10.05
2022-09-28T03:11:46.021Z,10.10
2022-09-28T03:14:17.245Z,10.06
2022-09-28T03:16:44.621Z,10.10
2022-09-28T03:19:15.789Z,9.98
2022-09-28T03:21:42.888Z,9.96
2022-09-28T03:24:09.399Z,10.08
2022-09-28T03:26:35.901Z,10.11
2022-09-28T03:29:02.358Z,10.14
2022-09-28T03:31:28.862Z,10.06
2022-09-28T03:33:55.331Z,10.01
2022-09-28T03:36:21.817Z,10.01
2022-09-28T03:38:52.701Z,10.15
2022-09-28T03:41:19.188Z,10.00
2022-09-28T03:43:45.646Z,10.06
2022-09-28T03:46:12.204Z,10.27
2022-09-28T03:48:39.761Z,10.29
2022-09-28T03:51:07.325Z,10.22
2022-09-28T03:53:33.806Z,10.31
2022-09-28T03:56:05.649Z,10.46
2022-09-28T03:58:32.342Z,10.46
2022-09-28T04:01:07.791Z,10.49
2022-09-28T04:03:35.048Z,10.71
2022-09-28T04:06:01.566Z,10.59
2022-09-28T04:08:28.282Z,10.74
2022-09-28T04:10:58.711Z,10.67
2022-09-28T04:13:26.130Z,10.81
2022-09-28T04:15:54.404Z,10.69
2022-09-28T04:18:21.356Z,10.82
2022-09-28T04:20:51.187Z,10.67
2022-09-28T04:23:17.818Z,10.57
2022-09-28T04:25:44.304Z,10.60
2022-09-28T04:28:11.283Z,10.59
2022-09-28T04:30:37.919Z,10.48
2022-09-28T04:33:04.565Z,10.53
2022-09-28T04:35:31.794Z,10.57
2022-09-28T04:37:58.398Z,10.68
2022-09-28T04:40:24.964Z,10.74
2022-09-28T04:42:55.433Z,10.74
2022-09-28T04:45:22.730Z,10.80
2022-09-28T04:47:49.893Z,10.84
2022-09-28T04:50:16.634Z,10.87
2022-09-28T04:52:43.146Z,10.98
2022-09-28T04:55:12.109Z,11.08
2022-09-28T04:57:38.604Z,11.09
2022-09-28T05:00:05.752Z,11.21
2022-09-28T05:02:32.301Z,11.04
2022-09-28T05:04:58.852Z,11.14
2022-09-28T05:07:25.843Z,11.19
2022-09-28T05:09:52.687Z,11.31
2022-09-28T05:12:19.121Z,11.24
2022-09-28T05:14:45.583Z,11.25
2022-09-28T05:17:12.504Z,11.35
2022-09-28T05:19:39.088Z,11.17
2022-09-28T05:22:05.565Z,11.14
2022-09-28T05:24:33.250Z,11.06
2022-09-28T05:26:59.785Z,11.04
2022-09-28T05:29:30.085Z,11.01
2022-09-28T05:31:58.581Z,11.15
2022-09-28T05:34:25.132Z,11.22
2022-09-28T05:36:52.219Z,11.35
2022-09-28T05:39:18.992Z,11.39
2022-09-28T05:41:45.435Z,11.47
2022-09-28T05:44:11.895Z,11.73
2022-09-28T05:46:41.444Z,11.62
2022-09-28T05:49:08.007Z,11.70
2022-09-28T05:51:34.569Z,11.54
2022-09-28T05:54:05.653Z,11.66
2022-09-28T05:56:33.085Z,11.72
2022-09-28T05:58:59.823Z,11.85
2022-09-28T06:01:27.141Z,11.89
2022-09-28T06:03:53.683Z,11.72
2022-09-28T06:06:20.149Z,11.71
2022-09-28T06:08:46.594Z,11.76
2022-09-28T06:11:13.038Z,12.00
2022-09-28T06:13:39.635Z,12.11
2022-09-28T06:16:07.342Z,12.10
2022-09-28T06:18:34.051Z,11.95
2022-09-28T06:21:00.528Z,11.94
2022-09-28T06:23:26.984Z,11.86
2022-09-28T06:25:53.415Z,12.08
2022-09-28T06:28:19.870Z,12.26
2022-09-28T06:30:46.436Z,12.41
2022-09-28T06:33:14.520Z,12.47
2022-09-28T06:35:41.400Z,12.37
2022-09-28T06:38:07.935Z,12.11
2022-09-28T06:40:34.462Z,11.92
2022-09-28T06:43:06.062Z,11.70
2022-09-28T06:45:32.499Z,11.82
2022-09-28T06:48:00.548Z,11.70
2022-09-28T06:50:28.960Z,11.74
2022-09-28T06:52:55.491Z,11.75
2022-09-28T06:55:22.315Z,11.74
2022-09-28T06:57:57.488Z,11.82
2022-09-28T07:00:24.017Z,11.94
2022-09-28T07:02:53.952Z,11.94
2022-09-28T07:05:20.604Z,12.12
2022-09-28T07:07:47.058Z,12.27
2022-09-28T07:10:14.359Z,12.54
2022-09-28T07:12:41.058Z,12.62
2022-09-28T07:15:08.263Z,12.76
2022-09-28T07:17:43.472Z,12.85
2022-09-28T07:20:19.628Z,12.88
2022-09-28T07:22:46.605Z,12.89
2022-09-28T07:25:13.108Z,12.96
2022-09-28T07:27:39.861Z,13.06
2022-09-28T07:30:07.326Z,13.07
2022-09-28T07:32:33.772Z,13.07
2022-09-28T07:35:00.430Z,13.12
2022-09-28T07:37:26.976Z,13.22
2022-09-28T07:39:53.727Z,13.20
2022-09-28T07:42:20.982Z,13.17
2022-09-28T07:44:47.648Z,13.22
2022-09-28T07:47:14.877Z,13.20
2022-09-28T07:49:42.607Z,13.23
2022-09-28T07:52:09.092Z,13.35
2022-09-28T07:54:35.826Z,13.28
2022-09-28T07:57:05.937Z,13.40
2022-09-28T07:59:32.327Z,13.31
2022-09-28T08:01:58.904Z,13.31
2022-09-28T08:04:25.983Z,13.27
2022-09-28T08:06:52.622Z,13.37
2022-09-28T08:09:19.164Z,13.46
2022-09-28T08:11:45.775Z,13.61
2022-09-28T08:14:12.274Z,13.70
2022-09-28T08:19:10.186Z,13.86
2022-09-28T08:21:36.641Z,13.88
2022-09-28T08:24:03.171Z,13.87
2022-09-28T08:26:31.480Z,13.83
2022-09-28T08:28:57.956Z,13.95
2022-09-28T08:31:24.534Z,14.08
2022-09-28T08:33:50.979Z,13.95
2022-09-28T08:36:17.421Z,13.94
2022-09-28T08:38:44.397Z,13.85
2022-09-28T08:41:23.001Z,13.84
2022-09-28T08:44:16.831Z,13.61
2022-09-28T08:46:52.403Z,13.46
2022-09-28T08:49:34.235Z,13.61
2022-09-28T08:52:03.827Z,13.68
2022-09-28T08:54:40.906Z,13.85
2022-09-28T08:57:12.961Z,13.99
2022-09-28T08:59:52.529Z,14.08
2022-09-28T09:02:25.824Z,14.24
2022-09-28T09:04:52.604Z,14.14
2022-09-28T09:07:28.155Z,14.26
2022-09-28T09:10:18.276Z,14.43
2022-09-28T09:13:03.616Z,14.23
2022-09-28T09:15:41.545Z,14.24
2022-09-28T09:18:15.560Z,14.18
2022-09-28T09:20:56.051Z,14.18
2022-09-28T09:23:40.729Z,14.07
2022-09-28T09:26:22.024Z,14.02
2022-09-28T09:29:30.100Z,14.03
2022-09-28T09:32:13.231Z,14.02
2022-09-28T09:35:01.381Z,14.24
2022-09-28T09:37:46.223Z,14.21
2022-09-28T09:40:18.209Z,14.26
2022-09-28T09:42:49.678Z,14.26
2022-09-28T09:45:19.010Z,14.31
2022-09-28T09:47:49.406Z,14.67
2022-09-28T09:50:26.152Z,14.75
2022-09-28T09:53:05.609Z,14.79
2022-09-28T09:55:50.845Z,14.84
2022-09-28T09:58:22.389Z,14.86
2022-09-28T10:00:54.043Z,14.82
2022-09-28T10:03:34.821Z,14.83
2022-09-28T10:06:08.387Z,14.63
2022-09-28T10:08:39.697Z,14.30
2022-09-28T10:11:13.194Z,14.23
2022-09-28T10:13:39.759Z,14.27
2022-09-28T10:16:07.292Z,14.30
2022-09-28T10:18:34.130Z,14.17
2022-09-28T10:21:00.694Z,14.12
2022-09-28T10:23:30.183Z,14.00
2022-09-28T10:26:03.669Z,13.95
2022-09-28T10:28:36.021Z,14.09
2022-09-28T10:31:33.335Z,14.24
2022-09-28T10:33:59.811Z,14.42
2022-09-28T10:36:26.346Z,14.66
2022-09-28T10:38:52.835Z,14.77
2022-09-28T10:41:19.485Z,14.85
2022-09-28T10:43:58.170Z,15.10
2022-09-28T10:46:24.771Z,14.93
2022-09-28T10:48:51.370Z,14.97
2022-09-28T10:51:17.894Z,14.95
2022-09-28T10:54:01.392Z,14.96
2022-09-28T10:56:30.329Z,15.05
2022-09-28T10:58:57.198Z,15.30
2022-09-28T11:01:26.661Z,15.49
2022-09-28T11:04:01.615Z,15.58
2022-09-28T11:06:33.225Z,15.71
2022-09-28T11:09:28.401Z,15.58
2022-09-28T11:12:01.035Z,15.65
2022-09-28T11:14:38.257Z,15.48
2022-09-28T11:17:37.515Z,15.52
2022-09-28T11:20:27.829Z,15.34
2022-09-28T11:23:00.318Z,15.31
2022-09-28T11:25:28.908Z,15.10
2022-09-28T11:28:01.964Z,14.97
2022-09-28T11:30:28.527Z,14.82
2022-09-28T11:33:03.123Z,14.83
2022-09-28T11:35:47.066Z,14.76
2022-09-28T11:38:32.836Z,14.55
2022-09-28T11:41:26.783Z,14.48
2022-09-28T11:44:28.159Z,14.40
2022-09-28T11:47:09.889Z,14.41
2022-09-28T11:49:44.723Z,14.52
2022-09-28T11:52:18.805Z,14.67
2022-09-28T11:54:52.281Z,14.75
2022-09-28T11:57:22.190Z,14.80
2022-09-28T11:59:58.967Z,14.81
2022-09-28T12:02:33.970Z,15.17
2022-09-28T12:05:30.551Z,15.33
2022-09-28T12:08:02.010Z,15.45
2022-09-28T12:10:45.584Z,15.32
2022-09-28T12:13:15.380Z,15.10
2022-09-28T12:16:11.635Z,14.94
2022-09-28T12:18:41.112Z,14.77
2022-09-28T12:21:42.973Z,14.72
2022-09-28T12:24:27.302Z,14.75
2022-09-28T12:26:58.546Z,14.78
2022-09-28T12:29:35.212Z,15.02
2022-09-28T12:32:10.221Z,15.05
2022-09-28T12:34:36.776Z,15.37
2022-09-28T12:37:27.975Z,15.36
2022-09-28T12:40:23.490Z,15.53
2022-09-28T12:43:05.313Z,15.67
2022-09-28T12:46:10.506Z,15.55
2022-09-28T12:49:47.196Z,15.64
2022-09-28T12:51:50.047Z,15.58
2022-09-28T12:54:21.964Z,15.51
2022-09-28T12:57:14.215Z,15.37
2022-09-28T13:00:04.708Z,15.33
2022-09-28T13:02:49.335Z,15.49
2022-09-28T13:05:38.732Z,15.31
2022-09-28T13:08:12.186Z,15.36
2022-09-28T13:10:52.096Z,15.22
2022-09-28T13:13:47.440Z,15.22
2022-09-28T13:16:19.722Z,15.21
2022-09-28T13:18:49.031Z,15.12
2022-09-28T13:21:18.835Z,15.09
2022-09-28T13:23:47.039Z,15.05
2022-09-28T13:26:28.416Z,15.10
2022-09-28T13:29:00.077Z,15.00
2022-09-28T13:31:29.285Z,14.94
2022-09-28T13:34:00.091Z,14.83
2022-09-28T13:36:29.623Z,14.93
2022-09-28T13:38:57.618Z,14.96
2022-09-28T13:41:35.610Z,15.10
2022-09-28T13:44:12.042Z,15.19
2022-09-28T13:46:56.839Z,15.11
2022-09-28T13:49:42.494Z,15.09
2022-09-28T13:52:26.868Z,14.96
2022-09-28T13:55:02.465Z,14.87
2022-09-28T13:57:35.660Z,14.92
2022-09-28T14:00:24.827Z,14.79
2022-09-28T14:03:04.740Z,14.69
2022-09-28T14:05:34.369Z,14.72
2022-09-28T14:08:09.904Z,14.84
2022-09-28T14:10:53.284Z,14.79
2022-09-28T14:13:41.650Z,15.03
2022-09-28T14:16:28.889Z,15.07
2022-09-28T14:19:10.454Z,15.10
2022-09-28T14:22:01.830Z,14.98
2022-09-28T14:24:59.300Z,14.85
2022-09-28T14:27:44.200Z,14.88
2022-09-28T14:30:13.669Z,14.83
2022-09-28T14:32:41.938Z,14.90
2022-09-28T14:35:19.422Z,14.71
2022-09-28T14:37:48.379Z,14.67
2022-09-28T14:40:21.142Z,14.66
2022-09-28T14:43:22.497Z,14.60
2022-09-28T14:45:49.099Z,14.43
2022-09-28T14:48:20.806Z,14.52
2022-09-28T14:50:47.508Z,14.54
2022-09-28T14:53:18.570Z,14.56
2022-09-28T14:55:50.732Z,14.47
2022-09-28T14:58:20.711Z,14.54
2022-09-28T15:00:49.148Z,14.54
2022-09-28T15:03:16.042Z,14.65
2022-09-28T15:05:44.475Z,14.60
2022-09-28T15:08:11.613Z,14.46
2022-09-28T15:10:46.369Z,14.51
2022-09-28T15:13:26.065Z,14.41
2022-09-28T15:16:13.648Z,14.27
2022-09-28T15:18:48.249Z,14.23
2022-09-28T15:21:14.804Z,14.22
2022-09-28T15:23:43.136Z,14.14
2022-09-28T15:26:24.590Z,13.88
2022-09-28T15:28:54.849Z,13.77
2022-09-28T15:31:23.704Z,13.39
2022-09-28T15:33:52.680Z,13.03
2022-09-28T15:36:21.902Z,12.93
2022-09-28T15:38:55.708Z,12.83
2022-09-28T15:41:22.424Z,12.93
2022-09-28T15:44:12.642Z,13.02
2022-09-28T15:46:40.344Z,13.20
2022-09-28T15:49:23.091Z,13.26
2022-09-28T15:51:51.883Z,13.27
2022-09-28T15:54:23.925Z,13.42
2022-09-28T15:56:56.661Z,13.65
2022-09-28T15:59:29.639Z,13.66
2022-09-28T16:02:17.449Z,13.67
2022-09-28T16:04:49.688Z,13.70
2022-09-28T16:07:16.108Z,13.63
2022-09-28T16:10:01.877Z,13.68
2022-09-28T16:12:49.097Z,13.91
2022-09-28T16:15:31.318Z,13.99
2022-09-28T16:18:00.250Z,14.09
2022-09-28T16:20:31.662Z,14.07
2022-09-28T16:23:08.612Z,14.17
2022-09-28T16:25:36.646Z,14.10
2022-09-28T16:28:04.276Z,13.90
2022-09-28T16:30:33.205Z,13.95
2022-09-28T16:33:02.739Z,13.81
2022-09-28T16:35:31.420Z,13.80
2022-09-28T16:38:08.755Z,13.81
2022-09-28T16:40:39.159Z,13.77
2022-09-28T16:43:07.074Z,13.54
2022-09-28T16:45:33.643Z,13.35
2022-09-28T16:48:00.164Z,13.33
2022-09-28T16:50:26.652Z,13.06
2022-09-28T16:53:00.219Z,12.87
2022-09-28T16:55:40.219Z,12.62
2022-09-28T16:58:07.588Z,12.63
2022-09-28T17:00:34.102Z,12.74
2022-09-28T17:03:00.598Z,12.66
2022-09-28T17:05:27.069Z,12.63
2022-09-28T17:08:02.181Z,12.56
2022-09-28T17:11:09.364Z,12.55
2022-09-28T17:13:30.995Z,12.43
2022-09-28T17:15:58.297Z,12.54
2022-09-28T17:18:24.836Z,12.38
2022-09-28T17:20:52.396Z,12.28
2022-09-28T17:25:46.760Z,12.31
2022-09-28T17:28:22.365Z,12.43
2022-09-28T17:30:48.878Z,12.53
2022-09-28T17:33:15.676Z,12.62
2022-09-28T17:35:43.222Z,12.66
2022-09-28T17:38:12.007Z,12.49
2022-09-28T17:40:38.531Z,12.59
2022-09-28T17:43:05.126Z,12.68
2022-09-28T17:45:32.756Z,12.80
2022-09-28T17:47:59.329Z,12.72
2022-09-28T17:50:28.219Z,12.76
2022-09-28T17:52:55.280Z,12.86
2022-09-28T17:55:24.113Z,12.63
2022-09-28T17:57:50.685Z,12.76
2022-09-28T18:00:19.067Z,12.93
2022-09-28T18:02:45.675Z,12.82
2022-09-28T18:05:20.799Z,12.87
2022-09-28T18:07:59.686Z,12.90
2022-09-28T18:10:26.207Z,12.96
2022-09-28T18:12:52.995Z,12.94
2022-09-28T18:15:19.635Z,12.81
2022-09-28T18:17:46.086Z,12.54
2022-09-28T18:20:13.042Z,12.35
2022-09-28T18:22:39.829Z,12.18
2022-09-28T18:25:06.949Z,12.16
2022-09-28T18:27:33.547Z,11.98
2022-09-28T18:30:00.345Z,11.82
2022-09-28T18:32:28.259Z,11.78
2022-09-28T18:34:54.736Z,11.84
2022-09-28T18:37:21.177Z,11.64
2022-09-28T18:39:47.609Z,11.50
2022-09-28T18:42:14.088Z,11.56
2022-09-28T18:44:40.498Z,11.52
2022-09-28T18:47:06.995Z,11.41
2022-09-28T18:49:34.028Z,11.44
2022-09-28T18:52:00.830Z,11.35
2022-09-28T18:54:27.323Z,11.35
2022-09-28T18:56:55.120Z,11.23
2022-09-28T18:59:21.993Z,11.19
2022-09-28T19:01:48.664Z,11.24
2022-09-28T19:04:15.504Z,11.39
2022-09-28T19:06:43.964Z,11.51
2022-09-28T19:09:10.638Z,11.58
2022-09-28T19:11:39.997Z,11.56
2022-09-28T19:14:24.458Z,11.50
2022-09-28T19:16:53.410Z,11.40
2022-09-28T19:19:20.496Z,11.59
2022-09-28T19:21:47.256Z,11.63
2022-09-28T19:24:17.632Z,11.63
2022-09-28T19:26:44.448Z,11.68
2022-09-28T19:29:11.885Z,11.82
2022-09-28T19:31:38.781Z,11.86
2022-09-28T19:34:06.759Z,11.96
2022-09-28T19:36:34.924Z,11.99
2022-09-28T19:39:05.472Z,12.12
2022-09-28T19:41:39.090Z,12.04
2022-09-28T19:44:18.136Z,11.99
2022-09-28T19:46:44.891Z,11.83
2022-09-28T19:49:14.042Z,11.79
2022-09-28T19:51:56.535Z,11.91
2022-09-28T19:54:28.706Z,11.96
2022-09-28T19:56:56.689Z,11.93
2022-09-28T19:59:23.842Z,11.90
2022-09-28T20:01:50.881Z,11.86
2022-09-28T20:04:18.564Z,11.74
2022-09-28T20:06:45.099Z,11.74
2022-09-28T20:09:11.556Z,11.79
2022-09-28T20:11:38.048Z,11.85
2022-09-28T20:14:09.601Z,11.88
2022-09-28T20:16:36.647Z,11.86
2022-09-28T20:19:03.987Z,11.94
2022-09-28T20:21:33.003Z,12.06
2022-09-28T20:23:59.622Z,12.02
2022-09-28T20:26:26.802Z,12.02
2022-09-28T20:28:53.769Z,12.05
2022-09-28T20:31:24.790Z,12.04
2022-09-28T20:33:51.969Z,11.96
2022-09-28T20:36:21.103Z,12.00
2022-09-28T20:38:52.294Z,12.01
2022-09-28T20:41:20.476Z,12.11
2022-09-28T20:43:47.807Z,12.10
2022-09-28T20:46:14.522Z,12.00
2022-09-28T20:48:41.006Z,11.88
2022-09-28T20:51:12.900Z,11.79
2022-09-28T20:53:40.989Z,11.96
2022-09-28T20:56:23.048Z,12.17
2022-09-28T20:58:53.847Z,12.45
2022-09-28T21:01:28.132Z,12.51
2022-09-28T21:03:55.684Z,12.61
2022-09-28T21:06:24.581Z,12.70
2022-09-28T21:08:51.548Z,12.66
2022-09-28T21:11:21.380Z,12.68
2022-09-28T21:13:52.755Z,12.53
2022-09-28T21:16:19.254Z,12.43
2022-09-28T21:18:45.703Z,12.55
2022-09-28T21:21:18.431Z,12.72
2022-09-28T21:23:46.587Z,12.84
2022-09-28T21:26:15.262Z,12.86
2022-09-28T21:28:42.313Z,12.84
2022-09-28T21:31:11.098Z,12.85
2022-09-28T21:33:37.923Z,12.89
2022-09-28T21:36:22.281Z,12.99
2022-09-28T21:38:48.717Z,12.97
2022-09-28T21:41:16.999Z,12.83
2022-09-28T21:43:43.699Z,13.05
2022-09-28T21:46:10.263Z,13.20
2022-09-28T21:48:36.866Z,13.17
2022-09-28T21:51:06.164Z,13.19
2022-09-28T21:53:34.618Z,13.20
2022-09-28T21:56:01.863Z,13.12
2022-09-28T21:58:30.911Z,12.98
2022-09-28T22:01:14.947Z,12.92
2022-09-28T22:03:42.787Z,12.68
2022-09-28T22:06:09.766Z,12.55
2022-09-28T22:08:37.523Z,12.66
2022-09-28T22:11:12.852Z,12.88
2022-09-28T22:13:46.511Z,12.95
2022-09-28T22:16:14.265Z,12.69
2022-09-28T22:18:42.126Z,12.91
2022-09-28T22:21:11.967Z,12.92
2022-09-28T22:23:39.256Z,12.90
2022-09-28T22:26:14.240Z,12.97
2022-09-28T22:28:45.682Z,12.84
2022-09-28T22:31:12.215Z,12.72
2022-09-28T22:33:38.747Z,12.49
2022-09-28T22:36:05.589Z,12.40
2022-09-28T22:38:32.273Z,12.44
2022-09-28T22:40:58.946Z,12.32
2022-09-28T22:43:26.441Z,12.43
2022-09-28T22:46:07.832Z,12.34
2022-09-28T22:48:34.462Z,12.33
2022-09-28T22:51:04.394Z,12.25
2022-09-28T22:53:32.552Z,12.34
2022-09-28T22:56:00.299Z,12.43
2022-09-28T22:58:27.323Z,12.00
2022-09-28T23:00:53.809Z,12.15
2022-09-28T23:03:20.275Z,12.15
2022-09-28T23:05:54.253Z,12.25
2022-09-28T23:08:20.894Z,12.14
2022-09-28T23:10:47.395Z,12.04
2022-09-28T23:13:14.351Z,12.11
2022-09-28T23:15:40.847Z,12.17
2022-09-28T23:18:07.500Z,12.02
2022-09-28T23:20:36.173Z,11.84
2022-09-28T23:23:02.851Z,11.99
2022-09-28T23:25:29.433Z,11.86
2022-09-28T23:27:55.855Z,11.91
2022-09-28T23:30:23.614Z,11.93
2022-09-28T23:32:52.073Z,11.92
2022-09-28T23:35:19.390Z,12.01
2022-09-28T23:37:49.626Z,11.98
2022-09-28T23:40:15.981Z,11.92
2022-09-28T23:42:42.454Z,11.73
2022-09-28T23:45:09.540Z,11.70
2022-09-28T23:47:36.386Z,11.79
2022-09-28T23:50:05.260Z,11.77
2022-09-28T23:52:31.788Z,11.88
2022-09-28T23:54:58.348Z,11.76
2022-09-28T23:57:24.798Z,11.84
2022-09-28T23:59:51.312Z,11.92
